createdAt,value
2022-07-28T00:03:49.201Z,9
2022-07-28T00:18:48.882Z,9.01
2022-07-28T00:33:48.463Z,8.53
2022-07-28T00:48:49.381Z,8.7
2022-07-28T01:03:49.115Z,8.82
2022-07-28T01:18:49.280Z,8.95
2022-07-28T01:33:49.008Z,8.81
2022-07-28T01:48:50.701Z,9.16
2022-07-28T02:03:49.467Z,8.99
2022-07-28T02:18:49.077Z,9
2022-07-28T02:33:58.280Z,9.19
2022-07-28T02:48:49.258Z,9.41
2022-07-28T03:03:48.403Z,9.97
2022-07-28T03:18:48.879Z,9.12
2022-07-28T03:33:48.950Z,9.83
2022-07-28T03:48:49.167Z,9.12
2022-07-28T04:03:48.783Z,9.39
2022-07-28T04:18:48.941Z,8.67
2022-07-28T04:33:49.167Z,9.44
2022-07-28T04:48:49.238Z,10.11
2022-07-28T05:03:49.277Z,9.99
2022-07-28T05:18:48.882Z,10.1
2022-07-28T05:33:48.636Z,10
2022-07-28T05:48:49.300Z,9.73
2022-07-28T06:03:58.393Z,9.47
2022-07-28T06:18:49.137Z,9.63
2022-07-28T06:33:48.590Z,9.73
2022-07-28T06:48:48.865Z,9.13
2022-07-28T07:03:48.992Z,8.54
2022-07-28T07:18:49.045Z,8.75
2022-07-28T07:33:48.993Z,8.54
2022-07-28T07:48:48.824Z,8.17
2022-07-28T08:03:49.969Z,8.19
2022-07-28T08:18:49.031Z,8.06
2022-07-28T08:33:53.986Z,7.92
2022-07-28T08:48:48.632Z,7.05
2022-07-28T09:03:49.184Z,7.85
2022-07-28T09:18:49.282Z,8.18
2022-07-28T09:33:48.871Z,8.81
2022-07-28T09:48:48.650Z,8.09
2022-07-28T10:03:49.113Z,8.5
2022-07-28T10:18:48.658Z,8.39
2022-07-28T10:33:49.133Z,7.51
2022-07-28T10:48:48.686Z,7.91
2022-07-28T11:03:48.621Z,8.99
2022-07-28T11:18:49.028Z,8.85
2022-07-28T11:33:48.576Z,9.01
2022-07-28T11:48:48.865Z,8.91
2022-07-28T12:03:55.235Z,9.22
2022-07-28T12:18:48.505Z,9.33
2022-07-28T12:33:49.219Z,9
2022-07-28T12:48:49.118Z,9.53
2022-07-28T13:03:53.644Z,10.61
2022-07-28T13:18:48.920Z,10.78
2022-07-28T13:33:48.422Z,11.38
2022-07-28T13:48:57.604Z,12.76
2022-07-28T14:03:56.004Z,12.3
2022-07-28T14:18:49.173Z,12.7
2022-07-28T14:33:54.079Z,12.12
2022-07-28T14:48:48.835Z,9.73
2022-07-28T15:03:48.798Z,11.41
2022-07-28T15:18:48.953Z,9.34
2022-07-28T15:33:50.976Z,9.04
2022-07-28T15:48:48.760Z,8.71
2022-07-28T16:03:48.432Z,8.24
2022-07-28T16:18:49.050Z,8.65
2022-07-28T16:33:48.832Z,9.49
2022-07-28T16:48:48.584Z,8.71
2022-07-28T17:03:48.677Z,10.42
2022-07-28T17:18:48.791Z,10.06
2022-07-28T17:33:48.511Z,8.94
2022-07-28T17:48:49.182Z,7.58
2022-07-28T18:03:57.391Z,5.36
2022-07-28T18:18:48.630Z,5.18
2022-07-28T18:33:48.527Z,5.72
2022-07-28T18:48:52.519Z,6.51
2022-07-28T19:03:49.154Z,6.47
2022-07-28T19:18:48.568Z,6.73
2022-07-28T19:33:48.522Z,6.94
2022-07-28T19:48:48.625Z,7.85
2022-07-28T20:04:02.781Z,9.27
2022-07-28T20:18:49.050Z,3.62
2022-07-28T20:33:48.985Z,1.17
2022-07-28T20:48:49.024Z,0.98
2022-07-28T21:03:49.014Z,1.62
2022-07-28T21:18:49.066Z,1.29
2022-07-28T21:33:49.054Z,2.14
2022-07-28T21:48:49.126Z,2.15
2022-07-28T22:03:49.134Z,2.73
2022-07-28T22:18:49.145Z,2.65
2022-07-28T22:33:49.039Z,2.7
2022-07-28T22:48:49.091Z,1.87
2022-07-28T23:03:49.215Z,2.87
2022-07-28T23:18:49.192Z,2
2022-07-28T23:33:54.873Z,2.17
2022-07-28T23:48:48.433Z,2.51
